createdAt,value
2023-06-15T00:01:06.623Z,42.01
2023-06-15T00:03:33.935Z,42.04
2023-06-15T00:06:01.081Z,42.17
2023-06-15T00:08:28.091Z,42.04
2023-06-15T00:10:55.356Z,42.06
2023-06-15T00:13:22.380Z,42.76
2023-06-15T00:15:49.590Z,42.53
2023-06-15T00:18:16.692Z,42.16
2023-06-15T00:20:43.826Z,42.23
2023-06-15T00:23:11.739Z,42.34
2023-06-15T00:25:38.932Z,42.26
2023-06-15T00:28:06.084Z,42.45
2023-06-15T00:30:33.306Z,41.76
2023-06-15T00:33:00.682Z,42.33
2023-06-15T00:35:28.062Z,42.33
2023-06-15T00:37:56.046Z,42.73
2023-06-15T00:40:23.454Z,42.42
2023-06-15T00:42:50.607Z,43.00
2023-06-15T00:45:18.191Z,43.05
2023-06-15T00:47:47.489Z,42.41
2023-06-15T00:50:19.690Z,43.24
2023-06-15T00:52:50.521Z,42.99
2023-06-15T00:55:18.746Z,43.22
2023-06-15T00:57:50.820Z,42.94
2023-06-15T01:00:19.581Z,42.60
2023-06-15T01:02:50.834Z,42.45
2023-06-15T01:05:19.301Z,42.06
2023-06-15T01:07:49.866Z,42.21
2023-06-15T01:10:19.987Z,41.83
2023-06-15T01:12:52.193Z,41.83
2023-06-15T01:15:20.533Z,42.27
2023-06-15T01:17:55.533Z,42.61
2023-06-15T01:20:30.385Z,41.91
2023-06-15T01:23:31.535Z,42.19
2023-06-15T01:26:04.534Z,42.20
2023-06-15T01:28:32.251Z,42.09
2023-06-15T01:31:02.011Z,42.42
2023-06-15T01:33:32.300Z,42.43
2023-06-15T01:36:02.682Z,42.28
2023-06-15T01:38:31.607Z,42.27
2023-06-15T01:41:01.288Z,42.19
2023-06-15T01:43:32.526Z,41.91
2023-06-15T01:46:01.141Z,42.13
2023-06-15T01:48:28.516Z,42.16
2023-06-15T01:50:56.738Z,42.62
2023-06-15T01:53:24.817Z,42.42
2023-06-15T01:55:52.809Z,42.65
2023-06-15T01:58:19.869Z,42.21
2023-06-15T02:00:47.871Z,42.79
2023-06-15T02:03:15.319Z,42.60
2023-06-15T02:05:42.760Z,42.68
2023-06-15T02:08:11.979Z,42.67
2023-06-15T02:10:39.905Z,42.79
2023-06-15T02:13:12.105Z,42.94
2023-06-15T02:15:40.805Z,43.39
2023-06-15T02:18:18.345Z,43.76
2023-06-15T02:20:46.545Z,43.43
2023-06-15T02:23:14.376Z,43.03
2023-06-15T02:25:41.610Z,43.86
2023-06-15T02:28:08.971Z,43.13
2023-06-15T02:30:39.586Z,42.62
2023-06-15T02:33:09.466Z,42.90
2023-06-15T02:35:37.379Z,42.47
2023-06-15T02:38:04.577Z,42.65
2023-06-15T02:40:32.353Z,43.04
2023-06-15T02:43:00.987Z,42.63
2023-06-15T02:45:28.362Z,42.62
2023-06-15T02:47:56.699Z,42.57
2023-06-15T02:50:24.731Z,43.12
2023-06-15T02:53:02.449Z,42.74
2023-06-15T02:55:29.670Z,42.96
2023-06-15T02:57:57.117Z,43.73
2023-06-15T03:00:43.379Z,43.55
2023-06-15T03:03:23.818Z,43.67
2023-06-15T03:05:53.059Z,43.91
2023-06-15T03:08:21.386Z,44.33
2023-06-15T03:10:55.960Z,43.98
2023-06-15T03:13:23.033Z,43.84
2023-06-15T03:15:52.225Z,44.07
2023-06-15T03:18:19.624Z,43.95
2023-06-15T03:20:53.923Z,44.28
2023-06-15T03:23:21.657Z,44.09
2023-06-15T03:25:50.959Z,43.91
2023-06-15T03:28:19.893Z,43.88
2023-06-15T03:30:53.831Z,44.23
2023-06-15T03:33:24.626Z,44.12
2023-06-15T03:35:54.360Z,44.00
2023-06-15T03:38:21.995Z,43.89
2023-06-15T03:40:51.085Z,44.34
2023-06-15T03:43:18.389Z,44.20
2023-06-15T03:45:47.332Z,44.25
2023-06-15T03:48:14.669Z,44.46
2023-06-15T03:50:41.948Z,44.68
2023-06-15T03:53:10.909Z,44.94
2023-06-15T03:55:39.603Z,44.18
2023-06-15T03:58:07.020Z,44.44
2023-06-15T04:00:34.330Z,44.46
2023-06-15T04:03:01.566Z,44.29
2023-06-15T04:05:28.824Z,44.02
2023-06-15T04:07:56.085Z,43.92
2023-06-15T04:10:24.745Z,44.14
2023-06-15T04:12:52.267Z,43.90
2023-06-15T04:15:19.823Z,43.96
2023-06-15T04:17:50.028Z,43.91
2023-06-15T04:20:19.368Z,44.22
2023-06-15T04:22:48.854Z,44.57
2023-06-15T04:25:17.426Z,44.35
2023-06-15T04:27:48.295Z,44.11
2023-06-15T04:30:19.231Z,44.44
2023-06-15T04:32:47.601Z,44.28
2023-06-15T04:35:19.084Z,43.85
2023-06-15T04:37:46.865Z,44.00
2023-06-15T04:40:14.040Z,43.58
2023-06-15T04:42:42.027Z,43.22
2023-06-15T04:45:11.235Z,42.33
2023-06-15T04:47:38.686Z,42.30
2023-06-15T04:50:07.490Z,41.87
2023-06-15T04:52:35.660Z,41.73
2023-06-15T04:55:03.085Z,40.96
2023-06-15T04:57:31.261Z,40.98
2023-06-15T04:59:58.540Z,39.48
2023-06-15T05:02:25.888Z,37.13
2023-06-15T05:04:53.540Z,35.70
2023-06-15T05:07:20.837Z,34.96
2023-06-15T05:09:50.568Z,33.59
2023-06-15T05:12:24.806Z,33.04
2023-06-15T05:14:52.077Z,32.64
2023-06-15T05:17:20.820Z,32.42
2023-06-15T05:19:49.454Z,32.19
2023-06-15T05:22:16.762Z,31.88
2023-06-15T05:24:44.209Z,31.46
2023-06-15T05:27:11.433Z,30.86
2023-06-15T05:29:42.366Z,30.03
2023-06-15T05:32:11.294Z,28.91
2023-06-15T05:34:39.167Z,27.65
2023-06-15T05:37:06.712Z,27.57
2023-06-15T05:39:37.422Z,27.50
2023-06-15T05:42:04.850Z,27.20
2023-06-15T05:44:33.829Z,26.69
2023-06-15T05:47:02.021Z,26.12
2023-06-15T05:49:29.266Z,25.41
2023-06-15T05:51:56.926Z,24.83
2023-06-15T05:54:26.891Z,25.10
2023-06-15T05:56:55.882Z,24.68
2023-06-15T05:59:32.591Z,24.57
2023-06-15T06:02:01.441Z,23.73
2023-06-15T06:04:29.127Z,23.74
2023-06-15T06:06:56.345Z,23.34
2023-06-15T06:09:23.968Z,22.98
2023-06-15T06:11:51.947Z,22.58
2023-06-15T06:14:19.654Z,22.08
2023-06-15T06:16:46.885Z,22.15
2023-06-15T06:19:14.131Z,21.74
2023-06-15T06:21:42.032Z,22.18
2023-06-15T06:24:09.626Z,21.62
2023-06-15T06:26:38.216Z,21.30
2023-06-15T06:29:05.453Z,20.97
2023-06-15T06:31:32.664Z,20.79
2023-06-15T06:33:59.884Z,20.00
2023-06-15T06:36:27.956Z,19.65
2023-06-15T06:39:02.684Z,19.80
2023-06-15T06:41:30.661Z,19.89
2023-06-15T06:43:57.973Z,19.50
2023-06-15T06:46:25.285Z,19.47
2023-06-15T06:48:53.083Z,19.22
2023-06-15T06:51:20.283Z,19.16
2023-06-15T06:53:48.266Z,18.23
2023-06-15T06:56:15.789Z,18.07
2023-06-15T06:58:42.930Z,18.39
2023-06-15T07:01:10.168Z,18.18
2023-06-15T07:03:39.621Z,18.63
2023-06-15T07:06:06.951Z,17.99
2023-06-15T07:08:35.437Z,18.01
2023-06-15T07:11:03.406Z,17.47
2023-06-15T07:13:30.790Z,17.03
2023-06-15T07:15:59.372Z,16.84
2023-06-15T07:18:27.592Z,16.92
2023-06-15T07:20:55.240Z,17.22
2023-06-15T07:23:23.777Z,17.22
2023-06-15T07:25:55.485Z,17.30
2023-06-15T07:28:23.598Z,17.10
2023-06-15T07:30:50.988Z,17.67
2023-06-15T07:33:19.161Z,18.27
2023-06-15T07:35:46.800Z,17.79
2023-06-15T07:38:16.033Z,17.84
2023-06-15T07:40:43.733Z,18.13
2023-06-15T07:43:11.715Z,18.46
2023-06-15T07:45:39.272Z,17.83
2023-06-15T07:48:06.787Z,17.86
2023-06-15T07:50:34.123Z,16.92
2023-06-15T07:53:01.705Z,16.57
2023-06-15T07:55:28.965Z,16.46
2023-06-15T07:57:56.302Z,17.09
2023-06-15T08:00:24.084Z,17.39
2023-06-15T08:03:00.347Z,17.74
2023-06-15T08:05:27.738Z,16.77
2023-06-15T08:07:55.064Z,17.22
2023-06-15T08:10:22.934Z,16.90
2023-06-15T08:12:49.987Z,16.66
2023-06-15T08:15:17.686Z,16.77
2023-06-15T08:17:44.909Z,16.52
2023-06-15T08:20:12.672Z,16.74
2023-06-15T08:22:39.787Z,15.74
2023-06-15T08:25:07.493Z,15.96
2023-06-15T08:27:34.594Z,15.21
2023-06-15T08:30:01.677Z,15.38
2023-06-15T08:32:33.217Z,14.82
2023-06-15T08:35:00.570Z,14.66
2023-06-15T08:37:28.113Z,15.12
2023-06-15T08:39:55.178Z,14.80
2023-06-15T08:42:25.265Z,15.15
2023-06-15T08:44:54.197Z,15.03
2023-06-15T08:47:22.831Z,14.87
2023-06-15T08:49:50.251Z,15.53
2023-06-15T08:52:18.614Z,15.47
2023-06-15T08:54:46.100Z,16.40
2023-06-15T08:57:13.200Z,15.99
2023-06-15T08:59:42.151Z,15.60
2023-06-15T09:02:14.727Z,15.67
2023-06-15T09:04:42.421Z,16.36
2023-06-15T09:07:11.038Z,16.53
2023-06-15T09:09:38.292Z,16.82
2023-06-15T09:12:07.506Z,16.55
2023-06-15T09:14:41.266Z,16.50
2023-06-15T09:17:15.631Z,16.66
2023-06-15T09:19:42.765Z,16.38
2023-06-15T09:22:10.045Z,16.11
2023-06-15T09:24:42.979Z,16.14
2023-06-15T09:27:16.989Z,16.86
2023-06-15T09:30:14.264Z,16.96
2023-06-15T09:32:41.638Z,16.67
2023-06-15T09:35:09.810Z,16.51
2023-06-15T09:37:38.455Z,15.96
2023-06-15T09:40:08.886Z,15.95
2023-06-15T09:42:36.789Z,15.80
2023-06-15T09:45:07.627Z,16.01
2023-06-15T09:47:34.827Z,15.98
2023-06-15T09:50:08.687Z,15.46
2023-06-15T09:52:43.312Z,15.42
2023-06-15T09:55:11.737Z,14.96
2023-06-15T09:57:41.653Z,15.71
2023-06-15T10:00:10.890Z,15.52
2023-06-15T10:02:42.351Z,14.91
2023-06-15T10:05:15.410Z,14.86
2023-06-15T10:07:51.195Z,14.08
2023-06-15T10:10:22.110Z,14.43
2023-06-15T10:12:56.389Z,13.81
2023-06-15T10:15:25.981Z,13.60
2023-06-15T10:17:55.075Z,14.06
2023-06-15T10:20:25.360Z,13.63
2023-06-15T10:23:06.093Z,13.59
2023-06-15T10:25:33.890Z,13.42
2023-06-15T10:28:03.985Z,13.48
2023-06-15T10:30:49.807Z,13.26
2023-06-15T10:33:42.959Z,12.88
2023-06-15T10:36:19.418Z,12.71
2023-06-15T10:38:53.876Z,13.00
2023-06-15T10:41:21.372Z,13.36
2023-06-15T10:44:00.164Z,13.23
2023-06-15T10:46:31.739Z,12.91
2023-06-15T10:49:10.417Z,12.71
2023-06-15T10:51:43.107Z,13.12
2023-06-15T10:54:28.746Z,13.19
2023-06-15T10:56:57.240Z,12.57
2023-06-15T10:59:47.453Z,12.24
2023-06-15T11:02:43.636Z,12.09
2023-06-15T11:05:12.017Z,11.71
2023-06-15T11:07:47.510Z,12.13
2023-06-15T11:10:34.384Z,12.14
2023-06-15T11:13:07.128Z,11.41
2023-06-15T11:15:38.468Z,11.44
2023-06-15T11:18:13.943Z,11.34
2023-06-15T11:20:43.525Z,11.39
2023-06-15T11:23:17.597Z,11.45
2023-06-15T11:25:53.125Z,11.59
2023-06-15T11:28:36.860Z,12.07
2023-06-15T11:31:24.122Z,12.21
2023-06-15T11:33:51.330Z,12.32
2023-06-15T11:36:19.528Z,12.04
2023-06-15T11:38:46.698Z,11.50
2023-06-15T11:41:14.020Z,11.55
2023-06-15T11:43:43.257Z,11.00
2023-06-15T11:46:12.992Z,10.55
2023-06-15T11:48:47.207Z,11.01
2023-06-15T11:51:16.364Z,11.47
2023-06-15T11:53:44.677Z,11.62
2023-06-15T11:56:16.615Z,11.95
2023-06-15T11:58:45.828Z,11.66
2023-06-15T12:01:13.701Z,11.70
2023-06-15T12:06:22.427Z,11.44
2023-06-15T12:09:09.299Z,10.55
2023-06-15T12:11:55.617Z,11.06
2023-06-15T12:14:26.322Z,11.05
2023-06-15T12:16:54.810Z,10.36
2023-06-15T12:19:22.378Z,10.48
2023-06-15T12:21:49.766Z,10.81
2023-06-15T12:24:18.732Z,10.60
2023-06-15T12:26:54.516Z,10.81
2023-06-15T12:29:23.219Z,11.45
2023-06-15T12:34:41.214Z,11.51
2023-06-15T12:37:11.720Z,11.18
2023-06-15T12:39:57.281Z,10.96
2023-06-15T12:45:09.821Z,10.59
2023-06-15T12:47:37.225Z,11.19
2023-06-15T12:50:04.634Z,10.83
2023-06-15T12:52:31.712Z,10.75
2023-06-15T12:55:00.217Z,10.95
2023-06-15T12:57:27.383Z,10.37
2023-06-15T13:00:12.829Z,10.16
2023-06-15T13:02:41.208Z,10.00
2023-06-15T13:05:10.324Z,10.82
2023-06-15T13:07:37.615Z,11.59
2023-06-15T13:10:07.423Z,11.67
2023-06-15T13:12:36.843Z,11.01
2023-06-15T13:15:05.138Z,10.60
2023-06-15T13:17:51.768Z,11.16
2023-06-15T13:20:20.578Z,11.55
2023-06-15T13:22:50.283Z,12.04
2023-06-15T13:25:18.833Z,11.88
2023-06-15T13:27:46.104Z,11.91
2023-06-15T13:30:14.740Z,11.54
2023-06-15T13:32:44.397Z,11.61
2023-06-15T13:35:12.174Z,11.79
2023-06-15T13:37:40.082Z,11.39
2023-06-15T13:40:08.360Z,11.53
2023-06-15T13:42:37.519Z,11.74
2023-06-15T13:45:16.003Z,11.80
2023-06-15T13:47:44.144Z,11.75
2023-06-15T13:50:19.305Z,12.17
2023-06-15T13:52:48.094Z,12.26
2023-06-15T13:55:17.757Z,13.03
2023-06-15T13:57:47.066Z,14.46
2023-06-15T14:00:15.468Z,15.16
2023-06-15T14:02:44.512Z,16.00
2023-06-15T14:05:14.040Z,16.60
2023-06-15T14:07:41.610Z,16.90
2023-06-15T14:10:09.231Z,17.32
2023-06-15T14:12:37.678Z,16.78
2023-06-15T14:15:08.002Z,17.52
2023-06-15T14:17:35.389Z,17.76
2023-06-15T14:20:02.840Z,19.02
2023-06-15T14:22:32.118Z,19.93
2023-06-15T14:24:59.841Z,19.61
2023-06-15T14:27:27.261Z,20.19
2023-06-15T14:30:04.132Z,19.94
2023-06-15T14:32:31.695Z,20.06
2023-06-15T14:34:59.515Z,20.15
2023-06-15T14:37:26.964Z,19.84
2023-06-15T14:39:54.085Z,20.54
2023-06-15T14:42:24.772Z,20.76
2023-06-15T14:44:52.392Z,20.90
2023-06-15T14:47:19.640Z,21.01
2023-06-15T14:49:47.013Z,20.76
2023-06-15T14:52:14.817Z,20.72
2023-06-15T14:54:42.910Z,21.20
2023-06-15T14:57:12.704Z,21.04
2023-06-15T14:59:59.732Z,21.53
2023-06-15T15:02:27.613Z,21.59
2023-06-15T15:04:54.933Z,21.60
2023-06-15T15:07:22.236Z,21.57
2023-06-15T15:09:49.399Z,22.18
2023-06-15T15:12:16.659Z,22.04
2023-06-15T15:14:43.647Z,21.77
2023-06-15T15:17:13.355Z,21.72
2023-06-15T15:19:41.411Z,22.53
2023-06-15T15:22:08.646Z,22.44
2023-06-15T15:24:35.805Z,22.17
2023-06-15T15:27:03.142Z,22.13
2023-06-15T15:29:30.337Z,22.67
2023-06-15T15:31:57.509Z,22.65
2023-06-15T15:34:24.769Z,22.78
2023-06-15T15:36:51.947Z,22.68
2023-06-15T15:39:19.014Z,23.27
2023-06-15T15:41:46.362Z,23.43
2023-06-15T15:44:13.593Z,23.91
2023-06-15T15:46:40.697Z,23.70
2023-06-15T15:51:59.012Z,23.96
2023-06-15T15:54:26.155Z,24.32
2023-06-15T15:56:53.246Z,24.34
2023-06-15T15:59:22.988Z,24.56
2023-06-15T16:01:50.157Z,24.54
2023-06-15T16:04:17.431Z,24.64
2023-06-15T16:06:44.524Z,24.97
2023-06-15T16:09:11.625Z,25.14
2023-06-15T16:11:38.797Z,25.09
2023-06-15T16:14:12.499Z,24.74
2023-06-15T16:16:39.790Z,25.04
2023-06-15T16:19:10.385Z,24.80
2023-06-15T16:21:37.549Z,24.65
2023-06-15T16:24:05.128Z,24.92
2023-06-15T16:26:32.173Z,25.23
2023-06-15T16:28:59.322Z,25.75
2023-06-15T16:31:26.504Z,25.77
2023-06-15T16:33:53.592Z,25.92
2023-06-15T16:36:21.122Z,26.00
2023-06-15T16:39:06.702Z,26.38
2023-06-15T16:41:34.430Z,26.59
2023-06-15T16:44:02.716Z,26.64
2023-06-15T16:46:29.857Z,26.86
2023-06-15T16:48:57.065Z,27.20
2023-06-15T16:54:08.793Z,27.52
2023-06-15T16:56:36.256Z,27.56
2023-06-15T16:59:03.453Z,27.71
2023-06-15T17:01:30.575Z,27.88
2023-06-15T17:03:57.729Z,28.07
2023-06-15T17:06:24.784Z,28.07
2023-06-15T17:08:52.073Z,28.62
2023-06-15T17:11:27.021Z,28.67
2023-06-15T17:13:54.319Z,29.06
2023-06-15T17:16:21.545Z,29.27
2023-06-15T17:18:48.811Z,30.46
2023-06-15T17:21:37.028Z,30.64
2023-06-15T17:24:06.631Z,32.00
2023-06-15T17:26:34.355Z,30.46
2023-06-15T17:29:01.514Z,30.53
2023-06-15T17:31:29.186Z,31.73
2023-06-15T17:33:56.536Z,30.92
2023-06-15T17:36:23.757Z,31.09
2023-06-15T17:38:50.901Z,31.44
2023-06-15T17:41:18.021Z,31.46
2023-06-15T17:43:45.647Z,31.38
2023-06-15T17:46:15.054Z,32.03
2023-06-15T17:48:42.815Z,32.43
2023-06-15T17:51:28.634Z,31.84
2023-06-15T17:53:56.014Z,32.24
2023-06-15T17:56:23.217Z,31.92
2023-06-15T17:58:50.413Z,32.16
2023-06-15T18:01:36.130Z,32.17
2023-06-15T18:04:04.693Z,32.47
2023-06-15T18:06:31.968Z,32.69
2023-06-15T18:08:59.104Z,33.10
2023-06-15T18:14:11.097Z,33.65
2023-06-15T18:16:39.073Z,33.29
2023-06-15T18:21:51.432Z,33.61
2023-06-15T18:24:18.677Z,32.86
2023-06-15T18:26:47.169Z,33.84
2023-06-15T18:29:18.346Z,34.75
2023-06-15T18:31:45.558Z,34.08
2023-06-15T18:34:15.609Z,33.56
2023-06-15T18:36:43.340Z,33.53
2023-06-15T18:39:11.877Z,33.89
2023-06-15T18:44:23.859Z,35.22
2023-06-15T18:49:35.909Z,35.81
2023-06-15T18:52:03.087Z,35.53
2023-06-15T18:54:30.450Z,36.00
2023-06-15T18:56:57.733Z,36.41
2023-06-15T18:59:25.169Z,35.61
2023-06-15T19:04:37.292Z,35.86
2023-06-15T19:07:04.810Z,35.87
2023-06-15T19:09:31.878Z,36.07
2023-06-15T19:11:59.674Z,35.59
2023-06-15T19:14:29.189Z,36.43
2023-06-15T19:16:56.323Z,35.83
2023-06-15T19:19:23.641Z,35.75
2023-06-15T19:21:52.448Z,36.52
2023-06-15T19:24:21.960Z,36.52
2023-06-15T19:26:49.309Z,36.41
2023-06-15T19:29:16.777Z,36.27
2023-06-15T19:31:44.107Z,37.49
2023-06-15T19:34:11.180Z,36.90
2023-06-15T19:36:38.388Z,37.70
2023-06-15T19:39:05.633Z,36.71
2023-06-15T19:44:18.057Z,36.45
2023-06-15T19:46:45.833Z,36.92
2023-06-15T19:49:13.104Z,36.40
2023-06-15T19:54:25.195Z,37.11
2023-06-15T19:56:52.381Z,36.52
2023-06-15T19:59:20.289Z,37.05
2023-06-15T20:01:53.929Z,36.61
2023-06-15T20:04:21.200Z,36.12
2023-06-15T20:09:33.106Z,36.55
2023-06-15T20:12:00.423Z,36.52
2023-06-15T20:14:27.636Z,36.70
2023-06-15T20:16:55.204Z,36.67
2023-06-15T20:22:08.710Z,37.00
2023-06-15T20:24:36.159Z,36.66
2023-06-15T20:27:03.751Z,37.09
2023-06-15T20:29:31.458Z,37.00
2023-06-15T20:31:58.436Z,37.56
2023-06-15T20:34:25.751Z,37.30
2023-06-15T20:36:53.237Z,37.04
2023-06-15T20:39:20.517Z,37.47
2023-06-15T20:41:47.607Z,37.23
2023-06-15T20:44:14.872Z,36.91
2023-06-15T20:49:26.689Z,36.72
2023-06-15T20:51:53.831Z,36.73
2023-06-15T20:54:21.522Z,37.12
2023-06-15T20:56:51.734Z,37.04
2023-06-15T20:59:18.964Z,37.15
2023-06-15T21:01:46.108Z,37.05
2023-06-15T21:04:17.582Z,37.15
2023-06-15T21:06:44.669Z,37.53
2023-06-15T21:09:11.916Z,37.25
2023-06-15T21:11:39.006Z,37.24
2023-06-15T21:14:06.158Z,37.27
2023-06-15T21:16:33.315Z,37.21
2023-06-15T21:19:00.461Z,37.25
2023-06-15T21:21:28.725Z,37.48
2023-06-15T21:23:55.837Z,37.55
2023-06-15T21:26:22.975Z,37.77
2023-06-15T21:28:50.091Z,38.05
2023-06-15T21:31:18.295Z,38.11
2023-06-15T21:33:47.053Z,38.06
2023-06-15T21:36:14.112Z,38.19
2023-06-15T21:38:41.394Z,37.99
2023-06-15T21:41:08.429Z,37.77
2023-06-15T21:43:39.294Z,38.06
2023-06-15T21:46:08.042Z,38.24
2023-06-15T21:48:35.457Z,38.52
2023-06-15T21:51:03.367Z,38.05
2023-06-15T21:53:30.578Z,38.15
2023-06-15T21:55:57.626Z,38.34
2023-06-15T21:58:24.769Z,38.18
2023-06-15T22:00:51.908Z,38.16
2023-06-15T22:03:19.176Z,38.31
2023-06-15T22:05:49.155Z,38.04
2023-06-15T22:08:16.891Z,38.58
2023-06-15T22:10:44.069Z,38.43
2023-06-15T22:13:15.632Z,38.12
2023-06-15T22:15:42.992Z,38.49
2023-06-15T22:18:10.756Z,38.61
2023-06-15T22:20:37.950Z,38.83
2023-06-15T22:23:05.455Z,39.19
2023-06-15T22:25:37.458Z,39.05
2023-06-15T22:28:11.227Z,39.52
2023-06-15T22:30:38.343Z,39.63
2023-06-15T22:33:05.630Z,39.71
2023-06-15T22:35:32.766Z,39.83
2023-06-15T22:38:00.685Z,39.83
2023-06-15T22:40:29.946Z,40.12
2023-06-15T22:42:56.912Z,40.12
2023-06-15T22:45:23.984Z,40.29
2023-06-15T22:47:51.144Z,40.38
2023-06-15T22:50:22.144Z,40.33
2023-06-15T22:52:49.858Z,40.36
2023-06-15T22:55:17.020Z,39.90
2023-06-15T22:57:44.145Z,40.05
2023-06-15T23:00:11.911Z,39.80
2023-06-15T23:02:39.281Z,40.00
2023-06-15T23:05:07.646Z,40.13
2023-06-15T23:07:35.239Z,40.40
2023-06-15T23:10:02.378Z,40.43
2023-06-15T23:12:31.821Z,40.55
2023-06-15T23:14:59.551Z,40.60
2023-06-15T23:17:27.731Z,40.54
2023-06-15T23:19:56.625Z,41.03
2023-06-15T23:22:23.836Z,41.08
2023-06-15T23:24:52.710Z,40.79
2023-06-15T23:27:20.375Z,41.27
2023-06-15T23:29:49.661Z,40.89
2023-06-15T23:32:17.428Z,40.58
2023-06-15T23:34:44.835Z,42.64
2023-06-15T23:37:11.918Z,41.43
2023-06-15T23:39:38.986Z,41.84
2023-06-15T23:42:06.642Z,41.13
2023-06-15T23:44:33.780Z,41.54
2023-06-15T23:47:00.831Z,41.35
2023-06-15T23:49:27.864Z,41.73
2023-06-15T23:51:54.997Z,41.86
2023-06-15T23:54:22.084Z,41.03
2023-06-15T23:56:49.116Z,41.20
2023-06-15T23:59:16.248Z,41.44
